sensor_id;sensor_type;location;lat;lon;timestamp;P1;durP1;ratioP1;P2;durP2;ratioP2
75823;SDS011;64457;51.976;9.834;2024-03-02T00:01:45;28.27;;;17.00;;
75823;SDS011;64457;51.976;9.834;2024-03-02T00:04:15;28.83;;;16.97;;
75823;SDS011;64457;51.976;9.834;2024-03-02T00:06:43;29.10;;;17.13;;
75823;SDS011;64457;51.976;9.834;2024-03-02T00:09:11;33.17;;;17.07;;
75823;SDS011;64457;51.976;9.834;2024-03-02T00:11:41;29.90;;;17.20;;
75823;SDS011;64457;51.976;9.834;2024-03-02T00:14:10;27.43;;;15.80;;
75823;SDS011;64457;51.976;9.834;2024-03-02T00:16:41;30.40;;;18.33;;
75823;SDS011;64457;51.976;9.834;2024-03-02T00:19:13;28.90;;;16.50;;
75823;SDS011;64457;51.976;9.834;2024-03-02T00:21:40;32.10;;;18.33;;
75823;SDS011;64457;51.976;9.834;2024-03-02T00:24:12;30.70;;;16.73;;
75823;SDS011;64457;51.976;9.834;2024-03-02T00:26:48;32.00;;;18.43;;
75823;SDS011;64457;51.976;9.834;2024-03-02T00:29:15;34.80;;;17.77;;
75823;SDS011;64457;51.976;9.834;2024-03-02T00:31:44;29.90;;;16.57;;
75823;SDS011;64457;51.976;9.834;2024-03-02T00:34:15;30.77;;;16.60;;
75823;SDS011;64457;51.976;9.834;2024-03-02T00:36:43;30.80;;;18.40;;
75823;SDS011;64457;51.976;9.834;2024-03-02T00:39:12;40.00;;;19.80;;
75823;SDS011;64457;51.976;9.834;2024-03-02T00:41:43;32.80;;;17.87;;
75823;SDS011;64457;51.976;9.834;2024-03-02T00:44:11;32.83;;;18.50;;
75823;SDS011;64457;51.976;9.834;2024-03-02T00:46:42;30.73;;;17.90;;
75823;SDS011;64457;51.976;9.834;2024-03-02T00:49:22;29.07;;;17.70;;
75823;SDS011;64457;51.976;9.834;2024-03-02T00:51:52;35.13;;;19.33;;
75823;SDS011;64457;51.976;9.834;2024-03-02T00:54:28;33.20;;;18.90;;
75823;SDS011;64457;51.976;9.834;2024-03-02T00:56:59;33.57;;;19.20;;
75823;SDS011;64457;51.976;9.834;2024-03-02T00:59:26;33.13;;;18.87;;
75823;SDS011;64457;51.976;9.834;2024-03-02T01:01:55;36.80;;;19.67;;
75823;SDS011;64457;51.976;9.834;2024-03-02T01:04:23;31.20;;;18.53;;
75823;SDS011;64457;51.976;9.834;2024-03-02T01:06:51;36.53;;;18.80;;
75823;SDS011;64457;51.976;9.834;2024-03-02T01:09:18;37.50;;;19.20;;
75823;SDS011;64457;51.976;9.834;2024-03-02T01:11:47;36.37;;;19.20;;
75823;SDS011;64457;51.976;9.834;2024-03-02T01:14:15;33.37;;;18.33;;
75823;SDS011;64457;51.976;9.834;2024-03-02T01:16:45;34.33;;;18.10;;
75823;SDS011;64457;51.976;9.834;2024-03-02T01:19:18;30.30;;;17.63;;
75823;SDS011;64457;51.976;9.834;2024-03-02T01:21:47;35.20;;;18.13;;
75823;SDS011;64457;51.976;9.834;2024-03-02T01:24:16;35.70;;;18.73;;
75823;SDS011;64457;51.976;9.834;2024-03-02T01:26:43;36.90;;;19.87;;
75823;SDS011;64457;51.976;9.834;2024-03-02T01:29:13;36.80;;;18.90;;
75823;SDS011;64457;51.976;9.834;2024-03-02T01:31:43;35.63;;;18.90;;
75823;SDS011;64457;51.976;9.834;2024-03-02T01:34:11;38.17;;;19.83;;
75823;SDS011;64457;51.976;9.834;2024-03-02T01:36:38;39.30;;;20.50;;
75823;SDS011;64457;51.976;9.834;2024-03-02T01:39:07;39.40;;;21.10;;
75823;SDS011;64457;51.976;9.834;2024-03-02T01:41:35;36.07;;;19.70;;
75823;SDS011;64457;51.976;9.834;2024-03-02T01:44:04;33.67;;;19.00;;
75823;SDS011;64457;51.976;9.834;2024-03-02T01:46:32;31.20;;;18.70;;
75823;SDS011;64457;51.976;9.834;2024-03-02T01:49:01;32.30;;;18.73;;
75823;SDS011;64457;51.976;9.834;2024-03-02T01:51:28;37.70;;;19.97;;
75823;SDS011;64457;51.976;9.834;2024-03-02T01:53:56;36.20;;;19.37;;
75823;SDS011;64457;51.976;9.834;2024-03-02T01:56:25;41.17;;;20.10;;
75823;SDS011;64457;51.976;9.834;2024-03-02T01:58:52;39.07;;;19.90;;
75823;SDS011;64457;51.976;9.834;2024-03-02T02:01:20;33.47;;;17.97;;
75823;SDS011;64457;51.976;9.834;2024-03-02T02:03:47;35.13;;;18.57;;
75823;SDS011;64457;51.976;9.834;2024-03-02T02:06:15;34.70;;;19.37;;
75823;SDS011;64457;51.976;9.834;2024-03-02T02:08:46;34.63;;;19.10;;
75823;SDS011;64457;51.976;9.834;2024-03-02T02:11:14;37.67;;;18.93;;
75823;SDS011;64457;51.976;9.834;2024-03-02T02:13:45;34.10;;;19.23;;
75823;SDS011;64457;51.976;9.834;2024-03-02T02:16:15;31.80;;;18.00;;
75823;SDS011;64457;51.976;9.834;2024-03-02T02:18:45;35.43;;;17.80;;
75823;SDS011;64457;51.976;9.834;2024-03-02T02:21:12;31.17;;;17.60;;
75823;SDS011;64457;51.976;9.834;2024-03-02T02:23:41;31.23;;;17.13;;
75823;SDS011;64457;51.976;9.834;2024-03-02T02:26:13;33.00;;;16.93;;
75823;SDS011;64457;51.976;9.834;2024-03-02T02:28:41;32.60;;;15.90;;
75823;SDS011;64457;51.976;9.834;2024-03-02T02:31:12;29.10;;;16.40;;
75823;SDS011;64457;51.976;9.834;2024-03-02T02:33:39;31.73;;;16.70;;
75823;SDS011;64457;51.976;9.834;2024-03-02T02:36:07;28.93;;;15.30;;
75823;SDS011;64457;51.976;9.834;2024-03-02T02:38:37;29.30;;;17.30;;
75823;SDS011;64457;51.976;9.834;2024-03-02T02:41:09;27.40;;;15.67;;
75823;SDS011;64457;51.976;9.834;2024-03-02T02:43:51;30.53;;;15.70;;
75823;SDS011;64457;51.976;9.834;2024-03-02T02:46:18;30.83;;;17.60;;
75823;SDS011;64457;51.976;9.834;2024-03-02T02:48:46;36.70;;;18.53;;
75823;SDS011;64457;51.976;9.834;2024-03-02T02:51:13;31.50;;;18.10;;
75823;SDS011;64457;51.976;9.834;2024-03-02T02:53:43;30.27;;;16.90;;
75823;SDS011;64457;51.976;9.834;2024-03-02T02:56:10;32.20;;;16.93;;
75823;SDS011;64457;51.976;9.834;2024-03-02T02:58:40;31.30;;;17.73;;
75823;SDS011;64457;51.976;9.834;2024-03-02T03:01:08;37.93;;;17.50;;
75823;SDS011;64457;51.976;9.834;2024-03-02T03:03:37;28.83;;;16.87;;
75823;SDS011;64457;51.976;9.834;2024-03-02T03:06:04;34.40;;;17.27;;
75823;SDS011;64457;51.976;9.834;2024-03-02T03:08:31;28.10;;;16.57;;
75823;SDS011;64457;51.976;9.834;2024-03-02T03:11:00;30.57;;;17.60;;
75823;SDS011;64457;51.976;9.834;2024-03-02T03:13:28;30.40;;;17.57;;
75823;SDS011;64457;51.976;9.834;2024-03-02T03:15:55;37.83;;;19.40;;
75823;SDS011;64457;51.976;9.834;2024-03-02T03:18:29;34.00;;;18.90;;
75823;SDS011;64457;51.976;9.834;2024-03-02T03:20:56;35.33;;;19.33;;
75823;SDS011;64457;51.976;9.834;2024-03-02T03:23:24;35.30;;;19.17;;
75823;SDS011;64457;51.976;9.834;2024-03-02T03:25:51;36.17;;;19.90;;
75823;SDS011;64457;51.976;9.834;2024-03-02T03:28:21;36.13;;;20.47;;
75823;SDS011;64457;51.976;9.834;2024-03-02T03:30:48;40.07;;;20.30;;
75823;SDS011;64457;51.976;9.834;2024-03-02T03:33:16;38.27;;;18.60;;
75823;SDS011;64457;51.976;9.834;2024-03-02T03:35:43;35.07;;;19.30;;
75823;SDS011;64457;51.976;9.834;2024-03-02T03:38:10;34.40;;;18.23;;
75823;SDS011;64457;51.976;9.834;2024-03-02T03:40:38;37.80;;;19.30;;
75823;SDS011;64457;51.976;9.834;2024-03-02T03:43:05;31.80;;;18.50;;
75823;SDS011;64457;51.976;9.834;2024-03-02T03:45:34;33.57;;;18.10;;
75823;SDS011;64457;51.976;9.834;2024-03-02T03:48:01;37.10;;;19.20;;
75823;SDS011;64457;51.976;9.834;2024-03-02T03:50:28;34.10;;;18.83;;
75823;SDS011;64457;51.976;9.834;2024-03-02T03:52:56;35.43;;;19.47;;
75823;SDS011;64457;51.976;9.834;2024-03-02T03:55:23;38.50;;;19.53;;
75823;SDS011;64457;51.976;9.834;2024-03-02T03:57:51;43.37;;;18.80;;
75823;SDS011;64457;51.976;9.834;2024-03-02T04:00:18;37.20;;;19.47;;
75823;SDS011;64457;51.976;9.834;2024-03-02T04:02:47;37.47;;;19.60;;
75823;SDS011;64457;51.976;9.834;2024-03-02T04:05:14;34.63;;;19.30;;
75823;SDS011;64457;51.976;9.834;2024-03-02T04:07:41;38.80;;;18.70;;
75823;SDS011;64457;51.976;9.834;2024-03-02T04:10:09;40.67;;;19.90;;
75823;SDS011;64457;51.976;9.834;2024-03-02T04:12:38;36.97;;;18.60;;
75823;SDS011;64457;51.976;9.834;2024-03-02T04:15:05;37.53;;;19.10;;
75823;SDS011;64457;51.976;9.834;2024-03-02T04:17:34;39.30;;;20.07;;
75823;SDS011;64457;51.976;9.834;2024-03-02T04:20:03;37.83;;;20.50;;
75823;SDS011;64457;51.976;9.834;2024-03-02T04:22:32;37.80;;;19.37;;
75823;SDS011;64457;51.976;9.834;2024-03-02T04:25:01;34.50;;;18.83;;
75823;SDS011;64457;51.976;9.834;2024-03-02T04:27:30;37.27;;;20.37;;
75823;SDS011;64457;51.976;9.834;2024-03-02T04:29:58;40.00;;;20.17;;
75823;SDS011;64457;51.976;9.834;2024-03-02T04:32:26;35.00;;;20.00;;
75823;SDS011;64457;51.976;9.834;2024-03-02T04:34:53;36.10;;;19.87;;
75823;SDS011;64457;51.976;9.834;2024-03-02T04:37:24;39.87;;;19.93;;
75823;SDS011;64457;51.976;9.834;2024-03-02T04:39:52;40.13;;;19.27;;
75823;SDS011;64457;51.976;9.834;2024-03-02T04:42:19;39.10;;;20.20;;
75823;SDS011;64457;51.976;9.834;2024-03-02T04:44:47;37.20;;;19.90;;
75823;SDS011;64457;51.976;9.834;2024-03-02T04:47:15;43.23;;;21.67;;
75823;SDS011;64457;51.976;9.834;2024-03-02T04:49:46;43.87;;;20.60;;
75823;SDS011;64457;51.976;9.834;2024-03-02T04:52:13;39.60;;;20.87;;
75823;SDS011;64457;51.976;9.834;2024-03-02T04:54:42;37.17;;;20.27;;
75823;SDS011;64457;51.976;9.834;2024-03-02T04:57:23;43.23;;;21.50;;
75823;SDS011;64457;51.976;9.834;2024-03-02T04:59:53;44.07;;;20.90;;
75823;SDS011;64457;51.976;9.834;2024-03-02T05:02:20;46.10;;;21.70;;
75823;SDS011;64457;51.976;9.834;2024-03-02T05:04:50;40.70;;;21.23;;
75823;SDS011;64457;51.976;9.834;2024-03-02T05:07:17;47.43;;;23.70;;
75823;SDS011;64457;51.976;9.834;2024-03-02T05:09:46;48.27;;;22.80;;
75823;SDS011;64457;51.976;9.834;2024-03-02T05:12:13;49.73;;;24.43;;
75823;SDS011;64457;51.976;9.834;2024-03-02T05:15:06;46.70;;;21.83;;
75823;SDS011;64457;51.976;9.834;2024-03-02T05:17:35;47.00;;;22.30;;
75823;SDS011;64457;51.976;9.834;2024-03-02T05:20:03;46.53;;;23.20;;
75823;SDS011;64457;51.976;9.834;2024-03-02T05:22:33;45.77;;;22.93;;
75823;SDS011;64457;51.976;9.834;2024-03-02T05:25:02;47.10;;;23.90;;
75823;SDS011;64457;51.976;9.834;2024-03-02T05:27:30;41.37;;;20.60;;
75823;SDS011;64457;51.976;9.834;2024-03-02T05:29:58;41.00;;;21.33;;
75823;SDS011;64457;51.976;9.834;2024-03-02T05:32:25;51.17;;;22.40;;
75823;SDS011;64457;51.976;9.834;2024-03-02T05:34:53;44.70;;;21.40;;
75823;SDS011;64457;51.976;9.834;2024-03-02T05:37:21;41.07;;;20.83;;
75823;SDS011;64457;51.976;9.834;2024-03-02T05:39:48;44.50;;;21.37;;
75823;SDS011;64457;51.976;9.834;2024-03-02T05:42:17;41.83;;;21.03;;
75823;SDS011;64457;51.976;9.834;2024-03-02T05:44:44;44.03;;;21.23;;
75823;SDS011;64457;51.976;9.834;2024-03-02T05:47:12;44.27;;;21.30;;
75823;SDS011;64457;51.976;9.834;2024-03-02T05:49:39;40.97;;;21.17;;
75823;SDS011;64457;51.976;9.834;2024-03-02T05:52:06;46.03;;;22.00;;
75823;SDS011;64457;51.976;9.834;2024-03-02T05:54:34;51.17;;;23.03;;
75823;SDS011;64457;51.976;9.834;2024-03-02T05:57:03;46.10;;;22.70;;
75823;SDS011;64457;51.976;9.834;2024-03-02T05:59:54;45.77;;;22.30;;
75823;SDS011;64457;51.976;9.834;2024-03-02T06:02:23;44.47;;;23.40;;
75823;SDS011;64457;51.976;9.834;2024-03-02T06:04:52;48.50;;;22.70;;
75823;SDS011;64457;51.976;9.834;2024-03-02T06:07:22;52.87;;;24.30;;
75823;SDS011;64457;51.976;9.834;2024-03-02T06:09:49;53.20;;;24.17;;
75823;SDS011;64457;51.976;9.834;2024-03-02T06:12:17;42.53;;;23.13;;
75823;SDS011;64457;51.976;9.834;2024-03-02T06:14:45;46.43;;;22.60;;
75823;SDS011;64457;51.976;9.834;2024-03-02T06:17:20;45.00;;;23.10;;
75823;SDS011;64457;51.976;9.834;2024-03-02T06:19:47;42.33;;;22.93;;
75823;SDS011;64457;51.976;9.834;2024-03-02T06:22:14;38.10;;;20.80;;
75823;SDS011;64457;51.976;9.834;2024-03-02T06:24:44;43.47;;;20.90;;
75823;SDS011;64457;51.976;9.834;2024-03-02T06:27:12;49.97;;;22.70;;
75823;SDS011;64457;51.976;9.834;2024-03-02T06:29:39;47.40;;;21.80;;
75823;SDS011;64457;51.976;9.834;2024-03-02T06:32:12;42.20;;;20.87;;
75823;SDS011;64457;51.976;9.834;2024-03-02T06:34:41;43.43;;;21.07;;
75823;SDS011;64457;51.976;9.834;2024-03-02T06:37:09;43.73;;;21.80;;
75823;SDS011;64457;51.976;9.834;2024-03-02T06:39:36;42.50;;;22.20;;
75823;SDS011;64457;51.976;9.834;2024-03-02T06:42:04;39.57;;;19.97;;
75823;SDS011;64457;51.976;9.834;2024-03-02T06:44:32;36.60;;;19.20;;
75823;SDS011;64457;51.976;9.834;2024-03-02T06:47:00;44.57;;;21.33;;
75823;SDS011;64457;51.976;9.834;2024-03-02T06:49:31;41.23;;;21.07;;
75823;SDS011;64457;51.976;9.834;2024-03-02T06:51:59;37.33;;;19.40;;
75823;SDS011;64457;51.976;9.834;2024-03-02T06:54:26;40.37;;;20.40;;
75823;SDS011;64457;51.976;9.834;2024-03-02T06:56:54;39.90;;;19.90;;
75823;SDS011;64457;51.976;9.834;2024-03-02T06:59:21;32.07;;;19.30;;
75823;SDS011;64457;51.976;9.834;2024-03-02T07:01:50;35.47;;;19.67;;
75823;SDS011;64457;51.976;9.834;2024-03-02T07:04:29;38.43;;;18.90;;
75823;SDS011;64457;51.976;9.834;2024-03-02T07:06:56;33.40;;;18.17;;
75823;SDS011;64457;51.976;9.834;2024-03-02T07:09:25;35.20;;;18.87;;
75823;SDS011;64457;51.976;9.834;2024-03-02T07:11:53;39.40;;;18.47;;
75823;SDS011;64457;51.976;9.834;2024-03-02T07:14:20;38.53;;;20.60;;
75823;SDS011;64457;51.976;9.834;2024-03-02T07:17:09;43.40;;;20.87;;
75823;SDS011;64457;51.976;9.834;2024-03-02T07:19:41;40.47;;;19.90;;
75823;SDS011;64457;51.976;9.834;2024-03-02T07:22:16;67.17;;;31.57;;
75823;SDS011;64457;51.976;9.834;2024-03-02T07:24:45;68.83;;;34.43;;
75823;SDS011;64457;51.976;9.834;2024-03-02T07:27:18;63.17;;;31.10;;
75823;SDS011;64457;51.976;9.834;2024-03-02T07:29:49;47.67;;;25.67;;
75823;SDS011;64457;51.976;9.834;2024-03-02T07:32:17;38.53;;;20.63;;
75823;SDS011;64457;51.976;9.834;2024-03-02T07:34:46;40.30;;;19.67;;
75823;SDS011;64457;51.976;9.834;2024-03-02T07:37:18;34.63;;;18.97;;
75823;SDS011;64457;51.976;9.834;2024-03-02T07:39:46;42.47;;;20.27;;
75823;SDS011;64457;51.976;9.834;2024-03-02T07:42:16;34.47;;;19.57;;
75823;SDS011;64457;51.976;9.834;2024-03-02T07:44:44;35.03;;;19.57;;
75823;SDS011;64457;51.976;9.834;2024-03-02T07:47:12;37.00;;;19.10;;
75823;SDS011;64457;51.976;9.834;2024-03-02T07:49:40;37.90;;;19.47;;
75823;SDS011;64457;51.976;9.834;2024-03-02T07:52:07;35.67;;;18.87;;
75823;SDS011;64457;51.976;9.834;2024-03-02T07:54:36;36.03;;;18.13;;
75823;SDS011;64457;51.976;9.834;2024-03-02T07:57:05;34.83;;;18.33;;
75823;SDS011;64457;51.976;9.834;2024-03-02T07:59:35;34.03;;;18.63;;
75823;SDS011;64457;51.976;9.834;2024-03-02T08:02:06;35.97;;;20.10;;
75823;SDS011;64457;51.976;9.834;2024-03-02T08:04:34;37.67;;;19.07;;
75823;SDS011;64457;51.976;9.834;2024-03-02T08:07:02;33.87;;;18.63;;
75823;SDS011;64457;51.976;9.834;2024-03-02T08:09:30;30.70;;;17.27;;
75823;SDS011;64457;51.976;9.834;2024-03-02T08:12:00;30.77;;;17.43;;
75823;SDS011;64457;51.976;9.834;2024-03-02T08:14:27;33.20;;;17.83;;
75823;SDS011;64457;51.976;9.834;2024-03-02T08:16:55;36.40;;;18.60;;
75823;SDS011;64457;51.976;9.834;2024-03-02T08:19:23;31.10;;;17.07;;
75823;SDS011;64457;51.976;9.834;2024-03-02T08:21:51;36.37;;;18.77;;
75823;SDS011;64457;51.976;9.834;2024-03-02T08:24:18;31.30;;;17.73;;
75823;SDS011;64457;51.976;9.834;2024-03-02T08:26:46;33.23;;;17.13;;
75823;SDS011;64457;51.976;9.834;2024-03-02T08:29:20;28.77;;;16.53;;
75823;SDS011;64457;51.976;9.834;2024-03-02T08:31:48;32.53;;;17.90;;
75823;SDS011;64457;51.976;9.834;2024-03-02T08:34:16;29.20;;;15.60;;
75823;SDS011;64457;51.976;9.834;2024-03-02T08:36:43;28.77;;;15.90;;
75823;SDS011;64457;51.976;9.834;2024-03-02T08:39:11;30.80;;;16.80;;
75823;SDS011;64457;51.976;9.834;2024-03-02T08:41:40;26.80;;;15.57;;
75823;SDS011;64457;51.976;9.834;2024-03-02T08:44:09;29.63;;;15.93;;
75823;SDS011;64457;51.976;9.834;2024-03-02T08:46:42;32.07;;;16.60;;
75823;SDS011;64457;51.976;9.834;2024-03-02T08:49:13;27.60;;;16.17;;
75823;SDS011;64457;51.976;9.834;2024-03-02T08:51:45;31.60;;;16.87;;
75823;SDS011;64457;51.976;9.834;2024-03-02T08:54:21;26.90;;;15.80;;
75823;SDS011;64457;51.976;9.834;2024-03-02T08:56:51;26.90;;;16.20;;
75823;SDS011;64457;51.976;9.834;2024-03-02T08:59:29;25.03;;;15.33;;
75823;SDS011;64457;51.976;9.834;2024-03-02T09:02:04;26.07;;;15.77;;
75823;SDS011;64457;51.976;9.834;2024-03-02T09:04:38;27.10;;;16.43;;
75823;SDS011;64457;51.976;9.834;2024-03-02T09:07:07;30.03;;;16.27;;
75823;SDS011;64457;51.976;9.834;2024-03-02T09:09:39;29.60;;;17.13;;
75823;SDS011;64457;51.976;9.834;2024-03-02T09:12:11;29.07;;;16.17;;
75823;SDS011;64457;51.976;9.834;2024-03-02T09:14:42;28.30;;;16.50;;
75823;SDS011;64457;51.976;9.834;2024-03-02T09:17:16;29.53;;;16.97;;
75823;SDS011;64457;51.976;9.834;2024-03-02T09:19:45;28.97;;;16.50;;
75823;SDS011;64457;51.976;9.834;2024-03-02T09:22:19;28.60;;;16.63;;
75823;SDS011;64457;51.976;9.834;2024-03-02T09:24:52;28.80;;;17.00;;
75823;SDS011;64457;51.976;9.834;2024-03-02T09:27:46;26.90;;;15.43;;
75823;SDS011;64457;51.976;9.834;2024-03-02T09:30:14;26.40;;;15.90;;
75823;SDS011;64457;51.976;9.834;2024-03-02T09:32:43;23.70;;;15.60;;
75823;SDS011;64457;51.976;9.834;2024-03-02T09:35:10;26.73;;;16.20;;
75823;SDS011;64457;51.976;9.834;2024-03-02T09:37:38;27.47;;;15.33;;
75823;SDS011;64457;51.976;9.834;2024-03-02T09:40:06;29.20;;;15.83;;
75823;SDS011;64457;51.976;9.834;2024-03-02T09:42:35;28.40;;;16.13;;
75823;SDS011;64457;51.976;9.834;2024-03-02T09:45:03;27.43;;;16.07;;
75823;SDS011;64457;51.976;9.834;2024-03-02T09:47:32;30.67;;;15.67;;
75823;SDS011;64457;51.976;9.834;2024-03-02T09:50:01;25.67;;;14.97;;
75823;SDS011;64457;51.976;9.834;2024-03-02T09:52:29;27.00;;;15.47;;
75823;SDS011;64457;51.976;9.834;2024-03-02T09:54:59;26.77;;;15.00;;
75823;SDS011;64457;51.976;9.834;2024-03-02T09:57:26;25.37;;;15.10;;
75823;SDS011;64457;51.976;9.834;2024-03-02T10:00:01;24.00;;;13.93;;
75823;SDS011;64457;51.976;9.834;2024-03-02T10:02:29;28.10;;;15.00;;
75823;SDS011;64457;51.976;9.834;2024-03-02T10:04:58;26.90;;;15.03;;
75823;SDS011;64457;51.976;9.834;2024-03-02T10:07:29;26.07;;;14.03;;
75823;SDS011;64457;51.976;9.834;2024-03-02T10:09:56;26.03;;;14.57;;
75823;SDS011;64457;51.976;9.834;2024-03-02T10:12:26;24.70;;;14.53;;
75823;SDS011;64457;51.976;9.834;2024-03-02T10:14:55;23.10;;;13.70;;
75823;SDS011;64457;51.976;9.834;2024-03-02T10:17:33;22.00;;;13.27;;
75823;SDS011;64457;51.976;9.834;2024-03-02T10:20:04;21.93;;;13.40;;
75823;SDS011;64457;51.976;9.834;2024-03-02T10:22:49;21.60;;;13.07;;
75823;SDS011;64457;51.976;9.834;2024-03-02T10:25:28;23.50;;;12.97;;
75823;SDS011;64457;51.976;9.834;2024-03-02T10:27:57;23.00;;;14.00;;
75823;SDS011;64457;51.976;9.834;2024-03-02T10:30:26;22.87;;;13.57;;
75823;SDS011;64457;51.976;9.834;2024-03-02T10:32:53;22.57;;;13.33;;
75823;SDS011;64457;51.976;9.834;2024-03-02T10:35:25;25.63;;;13.10;;
75823;SDS011;64457;51.976;9.834;2024-03-02T10:37:53;21.40;;;13.60;;
75823;SDS011;64457;51.976;9.834;2024-03-02T10:40:22;20.30;;;13.50;;
75823;SDS011;64457;51.976;9.834;2024-03-02T10:42:50;21.07;;;13.20;;
75823;SDS011;64457;51.976;9.834;2024-03-02T10:45:19;21.83;;;12.70;;
75823;SDS011;64457;51.976;9.834;2024-03-02T10:47:47;19.80;;;12.00;;
75823;SDS011;64457;51.976;9.834;2024-03-02T10:50:16;19.30;;;12.00;;
75823;SDS011;64457;51.976;9.834;2024-03-02T10:52:45;19.07;;;12.20;;
75823;SDS011;64457;51.976;9.834;2024-03-02T10:55:13;22.40;;;12.50;;
75823;SDS011;64457;51.976;9.834;2024-03-02T10:57:41;21.97;;;13.90;;
75823;SDS011;64457;51.976;9.834;2024-03-02T11:00:15;19.30;;;11.83;;
75823;SDS011;64457;51.976;9.834;2024-03-02T11:02:50;20.30;;;12.47;;
75823;SDS011;64457;51.976;9.834;2024-03-02T11:05:23;19.90;;;11.73;;
75823;SDS011;64457;51.976;9.834;2024-03-02T11:08:00;17.60;;;11.10;;
75823;SDS011;64457;51.976;9.834;2024-03-02T11:10:34;18.90;;;11.20;;
75823;SDS011;64457;51.976;9.834;2024-03-02T11:13:12;18.87;;;11.10;;
75823;SDS011;64457;51.976;9.834;2024-03-02T11:15:41;17.80;;;11.00;;
75823;SDS011;64457;51.976;9.834;2024-03-02T11:18:11;17.23;;;11.10;;
75823;SDS011;64457;51.976;9.834;2024-03-02T11:20:40;18.33;;;11.30;;
75823;SDS011;64457;51.976;9.834;2024-03-02T11:23:10;20.30;;;10.90;;
75823;SDS011;64457;51.976;9.834;2024-03-02T11:25:37;16.90;;;10.67;;
75823;SDS011;64457;51.976;9.834;2024-03-02T11:28:07;16.47;;;9.77;;
75823;SDS011;64457;51.976;9.834;2024-03-02T11:30:51;20.90;;;11.00;;
75823;SDS011;64457;51.976;9.834;2024-03-02T11:33:22;17.60;;;10.10;;
75823;SDS011;64457;51.976;9.834;2024-03-02T11:35:52;18.40;;;11.27;;
75823;SDS011;64457;51.976;9.834;2024-03-02T11:38:21;18.00;;;10.07;;
75823;SDS011;64457;51.976;9.834;2024-03-02T11:40:50;17.30;;;10.20;;
75823;SDS011;64457;51.976;9.834;2024-03-02T11:43:18;17.70;;;10.90;;
75823;SDS011;64457;51.976;9.834;2024-03-02T11:45:46;15.77;;;10.30;;
75823;SDS011;64457;51.976;9.834;2024-03-02T11:48:15;15.07;;;10.23;;
75823;SDS011;64457;51.976;9.834;2024-03-02T11:50:43;18.90;;;11.23;;
75823;SDS011;64457;51.976;9.834;2024-03-02T11:53:18;15.40;;;9.87;;
75823;SDS011;64457;51.976;9.834;2024-03-02T11:55:49;14.87;;;9.67;;
75823;SDS011;64457;51.976;9.834;2024-03-02T11:58:16;16.67;;;9.93;;
75823;SDS011;64457;51.976;9.834;2024-03-02T12:00:45;16.33;;;10.20;;
75823;SDS011;64457;51.976;9.834;2024-03-02T12:03:13;16.57;;;9.67;;
75823;SDS011;64457;51.976;9.834;2024-03-02T12:05:41;16.63;;;9.57;;
75823;SDS011;64457;51.976;9.834;2024-03-02T12:08:11;17.03;;;9.73;;
75823;SDS011;64457;51.976;9.834;2024-03-02T12:10:40;11.83;;;7.93;;
75823;SDS011;64457;51.976;9.834;2024-03-02T12:13:09;13.83;;;9.03;;
75823;SDS011;64457;51.976;9.834;2024-03-02T12:15:37;19.63;;;9.80;;
75823;SDS011;64457;51.976;9.834;2024-03-02T12:18:06;14.80;;;8.90;;
75823;SDS011;64457;51.976;9.834;2024-03-02T12:20:33;12.50;;;8.70;;
75823;SDS011;64457;51.976;9.834;2024-03-02T12:23:01;15.13;;;9.40;;
75823;SDS011;64457;51.976;9.834;2024-03-02T12:25:31;13.80;;;8.33;;
75823;SDS011;64457;51.976;9.834;2024-03-02T12:28:02;13.40;;;8.40;;
75823;SDS011;64457;51.976;9.834;2024-03-02T12:30:32;13.00;;;8.10;;
75823;SDS011;64457;51.976;9.834;2024-03-02T12:33:02;13.27;;;8.47;;
75823;SDS011;64457;51.976;9.834;2024-03-02T12:35:34;15.27;;;9.13;;
75823;SDS011;64457;51.976;9.834;2024-03-02T12:38:03;19.20;;;8.40;;
75823;SDS011;64457;51.976;9.834;2024-03-02T12:40:31;14.70;;;8.77;;
75823;SDS011;64457;51.976;9.834;2024-03-02T12:42:58;14.50;;;8.20;;
75823;SDS011;64457;51.976;9.834;2024-03-02T12:45:33;13.53;;;8.67;;
75823;SDS011;64457;51.976;9.834;2024-03-02T12:48:06;12.10;;;7.90;;
75823;SDS011;64457;51.976;9.834;2024-03-02T12:50:33;14.97;;;7.70;;
75823;SDS011;64457;51.976;9.834;2024-03-02T12:53:01;11.93;;;7.83;;
75823;SDS011;64457;51.976;9.834;2024-03-02T12:55:29;13.83;;;8.23;;
75823;SDS011;64457;51.976;9.834;2024-03-02T12:57:57;14.57;;;7.90;;
75823;SDS011;64457;51.976;9.834;2024-03-02T13:00:28;12.57;;;7.93;;
75823;SDS011;64457;51.976;9.834;2024-03-02T13:03:01;15.80;;;8.13;;
75823;SDS011;64457;51.976;9.834;2024-03-02T13:05:29;11.70;;;7.67;;
75823;SDS011;64457;51.976;9.834;2024-03-02T13:07:58;11.27;;;6.90;;
75823;SDS011;64457;51.976;9.834;2024-03-02T13:10:29;12.40;;;7.67;;
75823;SDS011;64457;51.976;9.834;2024-03-02T13:12:56;12.27;;;8.03;;
75823;SDS011;64457;51.976;9.834;2024-03-02T13:15:25;10.90;;;6.73;;
75823;SDS011;64457;51.976;9.834;2024-03-02T13:17:54;15.07;;;7.83;;
75823;SDS011;64457;51.976;9.834;2024-03-02T13:20:29;9.87;;;6.70;;
75823;SDS011;64457;51.976;9.834;2024-03-02T13:23:04;9.90;;;6.67;;
75823;SDS011;64457;51.976;9.834;2024-03-02T13:25:31;16.57;;;7.57;;
75823;SDS011;64457;51.976;9.834;2024-03-02T13:28:01;11.20;;;8.07;;
75823;SDS011;64457;51.976;9.834;2024-03-02T13:30:29;10.13;;;7.00;;
75823;SDS011;64457;51.976;9.834;2024-03-02T13:32:57;13.00;;;6.97;;
75823;SDS011;64457;51.976;9.834;2024-03-02T13:35:25;10.00;;;6.80;;
75823;SDS011;64457;51.976;9.834;2024-03-02T13:37:52;10.50;;;6.43;;
75823;SDS011;64457;51.976;9.834;2024-03-02T13:40:20;13.43;;;6.93;;
75823;SDS011;64457;51.976;9.834;2024-03-02T13:42:49;12.00;;;7.27;;
75823;SDS011;64457;51.976;9.834;2024-03-02T13:45:19;10.00;;;6.57;;
75823;SDS011;64457;51.976;9.834;2024-03-02T13:47:46;12.03;;;7.63;;
75823;SDS011;64457;51.976;9.834;2024-03-02T13:50:15;10.87;;;6.70;;
75823;SDS011;64457;51.976;9.834;2024-03-02T13:52:42;12.17;;;6.70;;
75823;SDS011;64457;51.976;9.834;2024-03-02T13:55:10;9.77;;;6.90;;
75823;SDS011;64457;51.976;9.834;2024-03-02T13:57:37;7.67;;;5.40;;
75823;SDS011;64457;51.976;9.834;2024-03-02T14:00:05;10.73;;;6.13;;
75823;SDS011;64457;51.976;9.834;2024-03-02T14:02:37;12.23;;;7.00;;
75823;SDS011;64457;51.976;9.834;2024-03-02T14:05:05;20.00;;;11.10;;
75823;SDS011;64457;51.976;9.834;2024-03-02T14:07:37;12.40;;;6.80;;
75823;SDS011;64457;51.976;9.834;2024-03-02T14:10:05;13.03;;;7.07;;
75823;SDS011;64457;51.976;9.834;2024-03-02T14:12:33;10.43;;;6.00;;
75823;SDS011;64457;51.976;9.834;2024-03-02T14:15:00;10.40;;;6.00;;
75823;SDS011;64457;51.976;9.834;2024-03-02T14:17:28;12.00;;;7.17;;
75823;SDS011;64457;51.976;9.834;2024-03-02T14:19:57;10.03;;;6.97;;
75823;SDS011;64457;51.976;9.834;2024-03-02T14:22:24;14.50;;;6.13;;
75823;SDS011;64457;51.976;9.834;2024-03-02T14:24:54;11.87;;;5.97;;
75823;SDS011;64457;51.976;9.834;2024-03-02T14:27:22;11.90;;;6.70;;
75823;SDS011;64457;51.976;9.834;2024-03-02T14:29:50;11.03;;;6.53;;
75823;SDS011;64457;51.976;9.834;2024-03-02T14:32:18;11.73;;;6.43;;
75823;SDS011;64457;51.976;9.834;2024-03-02T14:34:45;8.17;;;6.10;;
75823;SDS011;64457;51.976;9.834;2024-03-02T14:37:13;9.07;;;5.87;;